Time;durP1;ratioP1;P1;durP2;ratioP2;P2;SDS_P1;SDS_P2;PMS_P1;PMS_P2;Temp;Humidity;BMP_temperature;BMP_pressure;BME280_temperature;BME280_humidity;BME280_pressure;Samples;Min_cycle;Max_cycle;Signal;HPM_P1;HPM_P2
2022/02/26 00:01:43;;;;;;;4.00;1.73;;;4.00;99.90;3.90;101365.00;;;;4929372;28;106690;-65
2022/02/26 00:04:09;;;;;;;2.80;1.77;;;4.00;99.90;3.80;101358.00;;;;4928931;28;121869;-65
2022/02/26 00:06:35;;;;;;;3.17;1.93;;;4.10;99.90;3.90;101360.00;;;;4929368;28;109442;-65
2022/02/26 00:09:03;;;;;;;3.80;1.77;;;4.00;99.90;3.80;101351.00;;;;4921737;28;100272;-65
2022/02/26 00:11:28;;;;;;;14.63;1.87;;;4.80;99.90;3.90;101364.00;;;;4922466;28;111365;-65
2022/02/26 00:13:54;;;;;;;7.13;1.97;;;4.10;99.90;3.80;101370.00;;;;4928573;28;122018;-64
2022/02/26 00:16:20;;;;;;;3.53;2.10;;;4.60;99.90;3.90;101375.00;;;;4928191;28;110415;-64
2022/02/26 00:18:45;;;;;;;5.10;1.70;;;4.00;99.90;3.90;101385.00;;;;4928894;28;108908;-65
2022/02/26 00:21:11;;;;;;;3.93;1.90;;;4.10;99.90;3.90;101380.00;;;;4928395;28;100033;-64
2022/02/26 00:23:37;;;;;;;3.90;2.10;;;4.00;99.90;3.90;101384.00;;;;4929324;28;116532;-65
2022/02/26 00:26:04;;;;;;;7.30;1.93;;;4.10;99.90;4.00;101400.00;;;;4926495;28;101229;-63
2022/02/26 00:28:29;;;;;;;7.10;2.57;;;4.00;99.90;4.00;101390.00;;;;4927235;28;92728;-64
2022/02/26 00:30:55;;;;;;;5.47;1.93;;;4.20;99.90;4.00;101401.00;;;;4927909;28;122575;-63
2022/02/26 00:33:20;;;;;;;4.43;1.00;;;4.10;99.90;4.00;101400.00;;;;4926815;28;102058;-64
2022/02/26 00:35:46;;;;;;;5.70;1.90;;;4.20;99.90;4.00;101413.00;;;;4927707;28;111237;-64
2022/02/26 00:38:12;;;;;;;5.67;2.53;;;4.90;99.90;4.10;101404.00;;;;4929160;28;106851;-65
2022/02/26 00:40:38;;;;;;;3.00;2.20;;;4.30;99.90;4.10;101417.00;;;;4927955;28;122445;-63
2022/02/26 00:43:03;;;;;;;3.90;2.20;;;4.90;99.90;4.10;101417.00;;;;4920539;28;120848;-63
2022/02/26 00:45:30;;;;;;;7.97;2.47;;;4.90;99.90;4.10;101430.00;;;;4928992;28;92747;-64
2022/02/26 00:47:56;;;;;;;4.53;2.10;;;4.30;99.90;4.10;101429.00;;;;4929335;28;92771;-64
2022/02/26 00:50:22;;;;;;;5.10;1.93;;;4.30;99.90;4.10;101433.00;;;;4929138;28;92735;-63
2022/02/26 00:52:48;;;;;;;4.43;1.87;;;4.30;99.90;4.10;101434.00;;;;4932082;28;106413;-63
2022/02/26 00:55:15;;;;;;;6.43;2.63;;;4.30;99.90;4.10;101443.00;;;;4930938;28;108748;-64
2022/02/26 00:57:41;;;;;;;7.40;1.93;;;4.30;99.90;4.10;101445.00;;;;4931935;28;93809;-64
2022/02/26 01:00:10;;;;;;;3.80;1.53;;;4.90;99.90;4.10;101443.00;;;;4930532;28;119828;-64
2022/02/26 01:02:35;;;;;;;6.70;2.13;;;4.30;99.90;4.10;101451.00;;;;4932516;28;93241;-66
2022/02/26 01:05:02;;;;;;;5.17;1.70;;;4.30;99.90;4.10;101466.00;;;;4931928;28;92950;-66
2022/02/26 01:07:27;;;;;;;9.00;2.20;;;4.30;99.90;4.10;101456.00;;;;4932999;28;92771;-65
2022/02/26 01:09:53;;;;;;;7.00;1.80;;;4.30;99.90;4.00;101458.00;;;;4930860;28;121873;-65
2022/02/26 01:12:19;;;;;;;6.37;1.20;;;4.30;99.90;4.00;101466.00;;;;4928433;28;106547;-65
2022/02/26 01:14:45;;;;;;;4.73;1.97;;;4.90;99.90;4.00;101466.00;;;;4931743;28;111652;-64
2022/02/26 01:17:13;;;;;;;4.77;2.13;;;4.20;99.90;4.00;101471.00;;;;4931310;28;109519;-64
2022/02/26 01:19:40;;;;;;;4.70;2.43;;;5.00;99.90;4.00;101467.00;;;;4930795;28;94149;-65
2022/02/26 01:22:06;;;;;;;4.63;2.00;;;4.20;99.90;4.00;101480.00;;;;4931803;28;94080;-63
2022/02/26 01:24:33;;;;;;;6.97;1.60;;;4.10;99.90;3.90;101472.00;;;;4932316;28;92814;-64
2022/02/26 01:26:59;;;;;;;6.10;1.73;;;4.20;99.90;3.90;101476.00;;;;4931492;28;100420;-64
2022/02/26 01:29:25;;;;;;;9.30;2.50;;;4.10;99.90;3.90;101485.00;;;;4931887;28;92941;-64
2022/02/26 01:31:51;;;;;;;2.03;1.53;;;4.10;99.90;3.80;101483.00;;;;4931268;28;101268;-64
2022/02/26 01:34:16;;;;;;;5.57;1.70;;;4.50;99.90;3.80;101486.00;;;;4923146;28;111182;-64
2022/02/26 01:36:42;;;;;;;9.30;2.80;;;4.50;99.90;3.80;101497.00;;;;4930502;28;109683;-64
2022/02/26 01:39:10;;;;;;;7.13;2.20;;;4.10;99.90;3.80;101493.00;;;;4930794;28;121839;-63
2022/02/26 01:41:38;;;;;;;6.80;1.67;;;4.10;99.90;3.80;101489.00;;;;4931656;28;93256;-63
2022/02/26 01:44:05;;;;;;;4.03;1.90;;;4.00;99.90;3.80;101494.00;;;;4925521;28;92874;-63
2022/02/26 01:46:31;;;;;;;3.40;2.03;;;4.00;99.90;3.90;101503.00;;;;4930978;28;93828;-64
2022/02/26 01:48:57;;;;;;;9.63;2.37;;;4.10;99.90;3.90;101508.00;;;;4930850;28;99306;-65
2022/02/26 01:51:23;;;;;;;7.13;2.00;;;4.10;99.90;3.90;101509.00;;;;4930296;28;111325;-64
2022/02/26 01:53:49;;;;;;;3.70;1.77;;;4.10;99.90;3.90;101499.00;;;;4931143;28;102461;-65
2022/02/26 01:56:16;;;;;;;3.80;1.77;;;4.10;99.90;3.90;101514.00;;;;4929744;28;106005;-65
2022/02/26 01:58:42;;;;;;;3.80;1.87;;;4.10;99.90;4.00;101516.00;;;;4930961;28;104569;-64
2022/02/26 02:01:09;;;;;;;7.83;1.67;;;4.10;99.90;4.00;101512.00;;;;4929830;28;112809;-65
2022/02/26 02:03:35;;;;;;;2.13;1.80;;;4.90;99.90;4.00;101525.00;;;;4930284;28;92028;-65
2022/02/26 02:06:02;;;;;;;4.57;1.83;;;4.20;99.90;4.00;101516.00;;;;4929634;28;92847;-64
2022/02/26 02:08:27;;;;;;;4.10;1.90;;;4.20;99.90;4.00;101512.00;;;;4931453;28;93153;-64
2022/02/26 02:10:54;;;;;;;7.93;2.23;;;4.20;99.90;4.00;101510.00;;;;4928976;28;123187;-65
2022/02/26 02:13:21;;;;;;;12.10;2.10;;;4.30;99.90;4.00;101522.00;;;;4930503;28;92775;-63
2022/02/26 02:15:47;;;;;;;4.33;1.63;;;4.20;99.90;4.10;101525.00;;;;4930132;28;97286;-64
2022/02/26 02:18:15;;;;;;;6.77;2.20;;;4.20;99.90;4.10;101533.00;;;;4930708;28;105735;-65
2022/02/26 02:20:43;;;;;;;17.80;2.73;;;4.80;99.90;4.10;101526.00;;;;4928806;28;94114;-65
2022/02/26 02:23:08;;;;;;;12.90;2.00;;;4.30;99.90;4.10;101523.00;;;;4931489;28;92869;-64
2022/02/26 02:25:37;;;;;;;8.77;2.23;;;4.30;99.90;4.10;101530.00;;;;4931082;28;92913;-64
2022/02/26 02:28:05;;;;;;;5.27;1.87;;;4.30;99.90;4.10;101529.00;;;;4931136;28;93357;-64
2022/02/26 02:30:32;;;;;;;8.00;2.37;;;5.20;99.90;4.10;101541.00;;;;4930703;28;103748;-64
2022/02/26 02:32:58;;;;;;;10.23;2.23;;;4.30;99.90;4.10;101530.00;;;;4931358;28;92878;-62
2022/02/26 02:35:38;;;;;;;3.40;1.77;;;4.30;99.90;4.10;101536.00;;;;4929750;28;93745;-64
2022/02/26 02:38:11;;;;;;;5.47;2.53;;;4.40;99.90;4.10;101540.00;;;;4930705;28;93943;-63
2022/02/26 02:40:38;;;;;;;5.47;2.13;;;4.30;99.90;4.10;101549.00;;;;4929853;28;93188;-64
2022/02/26 02:43:05;;;;;;;6.70;1.73;;;4.30;99.90;4.10;101540.00;;;;4928958;28;92780;-64
2022/02/26 02:45:33;;;;;;;4.60;2.20;;;4.30;99.90;4.20;101548.00;;;;4930184;28;93281;-65
2022/02/26 02:47:58;;;;;;;12.17;2.27;;;4.30;99.90;4.20;101555.00;;;;4930787;28;92941;-66
2022/02/26 02:50:25;;;;;;;8.10;2.03;;;4.30;99.90;4.20;101549.00;;;;4929843;28;93918;-65
2022/02/26 02:52:51;;;;;;;6.57;1.43;;;4.30;99.90;4.20;101550.00;;;;4931556;28;92202;-64
2022/02/26 02:55:20;;;;;;;2.53;1.67;;;4.80;99.90;4.20;101557.00;;;;4929923;28;108433;-64
2022/02/26 02:57:46;;;;;;;5.17;1.70;;;4.30;99.90;4.20;101557.00;;;;4929554;28;93909;-64
2022/02/26 03:00:13;;;;;;;3.00;1.90;;;4.40;99.90;4.20;101568.00;;;;4927463;28;102325;-64
2022/02/26 03:02:40;;;;;;;7.00;2.00;;;4.30;99.90;4.20;101559.00;;;;4930152;28;99121;-64
2022/02/26 03:05:07;;;;;;;5.80;2.27;;;4.30;99.90;4.20;101572.00;;;;4930543;28;92999;-65
2022/02/26 03:07:33;;;;;;;7.57;1.83;;;4.30;99.90;4.20;101569.00;;;;4930088;28;93746;-64
2022/02/26 03:09:58;;;;;;;1.60;1.47;;;4.30;99.90;4.20;101572.00;;;;4929088;28;116546;-64
2022/02/26 03:12:24;;;;;;;11.17;2.10;;;5.10;99.90;4.20;101576.00;;;;4930361;28;92915;-64
2022/02/26 03:14:50;;;;;;;5.83;1.97;;;4.30;99.90;4.20;101575.00;;;;4929366;28;101558;-65
2022/02/26 03:17:15;;;;;;;6.37;1.50;;;4.30;99.90;4.20;101576.00;;;;4927438;28;122497;-65
2022/02/26 03:19:41;;;;;;;6.20;2.33;;;4.30;99.90;4.10;101575.00;;;;4928951;28;121958;-66
2022/02/26 03:22:07;;;;;;;12.27;2.80;;;4.50;99.90;4.10;101584.00;;;;4930016;28;94165;-64
2022/02/26 03:24:33;;;;;;;3.83;2.03;;;4.30;99.90;4.10;101586.00;;;;4929639;28;93644;-64
2022/02/26 03:26:58;;;;;;;10.63;2.37;;;5.00;99.90;4.10;101580.00;;;;4929997;28;93407;-64
2022/02/26 03:29:31;;;;;;;3.53;2.13;;;4.30;99.90;4.10;101577.00;;;;4940640;28;113692;-64
2022/02/26 03:31:57;;;;;;;5.53;2.13;;;4.30;99.90;4.10;101592.00;;;;4928379;28;92836;-65
2022/02/26 03:34:23;;;;;;;9.10;2.33;;;4.30;99.90;4.10;101604.00;;;;4934300;28;92980;-64
2022/02/26 03:36:51;;;;;;;2.57;1.83;;;4.40;99.90;4.00;101596.00;;;;4930078;28;93606;-64
2022/02/26 03:39:18;;;;;;;8.83;1.33;;;4.30;99.90;4.00;101603.00;;;;4924227;28;93822;-65
2022/02/26 03:41:44;;;;;;;10.27;2.67;;;4.20;99.90;4.00;101599.00;;;;4929550;28;92189;-65
2022/02/26 03:44:30;;;;;;;10.23;2.50;;;4.20;99.90;4.00;101605.00;;;;4933016;28;94002;-64
2022/02/26 03:46:57;;;;;;;3.53;1.53;;;4.20;99.90;4.00;101607.00;;;;4930681;28;93600;-64
2022/02/26 03:49:23;;;;;;;11.17;2.73;;;4.80;99.90;4.00;101602.00;;;;4929805;28;93958;-64
2022/02/26 03:51:49;;;;;;;6.27;2.07;;;4.20;99.90;4.00;101614.00;;;;4927785;28;93341;-64
2022/02/26 03:54:15;;;;;;;9.73;2.17;;;4.20;99.90;4.00;101624.00;;;;4929315;28;108905;-64
2022/02/26 03:56:41;;;;;;;4.27;1.97;;;4.20;99.90;4.00;101624.00;;;;4928720;28;92908;-65
2022/02/26 03:59:07;;;;;;;4.77;2.00;;;4.40;99.90;4.00;101629.00;;;;4929009;28;94098;-64
2022/02/26 04:01:32;;;;;;;7.37;2.33;;;4.20;99.90;4.10;101622.00;;;;4928233;28;105484;-64
2022/02/26 04:03:58;;;;;;;9.63;2.30;;;4.30;99.90;4.10;101637.00;;;;4928754;28;92779;-63
2022/02/26 04:06:24;;;;;;;4.87;2.33;;;4.30;99.90;4.10;101644.00;;;;4924341;28;122884;-64
2022/02/26 04:08:49;;;;;;;3.77;2.10;;;4.30;99.90;4.10;101647.00;;;;4926397;28;122681;-64
2022/02/26 04:11:15;;;;;;;6.37;2.97;;;4.30;99.90;4.10;101651.00;;;;4927883;28;111025;-63
2022/02/26 04:13:41;;;;;;;7.63;2.40;;;4.90;99.90;4.00;101663.00;;;;4929395;28;93785;-63
2022/02/26 04:16:07;;;;;;;15.40;2.03;;;4.20;99.90;3.90;101654.00;;;;4928376;28;93672;-64
2022/02/26 04:18:32;;;;;;;8.70;2.70;;;4.10;99.90;3.80;101656.00;;;;4927208;28;109000;-66
2022/02/26 04:20:58;;;;;;;7.73;1.80;;;4.10;99.90;3.70;101652.00;;;;4927339;28;109625;-67
2022/02/26 04:23:24;;;;;;;9.57;2.67;;;4.00;99.90;3.70;101653.00;;;;4930305;28;92890;-66
2022/02/26 04:25:50;;;;;;;4.43;2.17;;;3.90;99.90;3.60;101658.00;;;;4929957;28;109319;-66
2022/02/26 04:28:16;;;;;;;6.87;2.17;;;4.40;99.90;3.60;101666.00;;;;4931151;28;122211;-66
2022/02/26 04:30:42;;;;;;;8.87;2.77;;;3.80;99.90;3.60;101666.00;;;;4932994;28;91980;-65
2022/02/26 04:33:09;;;;;;;5.77;2.20;;;3.80;99.90;3.60;101670.00;;;;4931855;28;109058;-65
2022/02/26 04:35:35;;;;;;;6.87;2.43;;;3.80;99.90;3.50;101670.00;;;;4925022;28;114202;-66
2022/02/26 04:38:02;;;;;;;5.30;2.30;;;3.70;99.90;3.50;101675.00;;;;4931810;28;93931;-66
2022/02/26 04:40:27;;;;;;;6.73;2.83;;;3.70;99.90;3.50;101682.00;;;;4930201;28;92884;-65
2022/02/26 04:42:53;;;;;;;4.07;2.10;;;3.60;99.90;3.60;101680.00;;;;4932369;28;92953;-65
2022/02/26 04:45:28;;;;;;;2.43;2.00;;;3.80;99.90;3.50;101692.00;;;;4931036;28;122709;-65
2022/02/26 04:47:54;;;;;;;12.90;2.30;;;3.70;99.90;3.50;101689.00;;;;4931106;28;110888;-66
2022/02/26 04:50:19;;;;;;;9.97;2.90;;;3.80;99.90;3.50;101690.00;;;;4931562;28;111442;-65
2022/02/26 04:52:45;;;;;;;5.43;2.60;;;3.80;99.90;3.50;101699.00;;;;4932971;28;93112;-66
2022/02/26 04:55:12;;;;;;;4.53;2.07;;;3.70;99.90;3.50;101701.00;;;;4931913;28;93617;-65
2022/02/26 04:57:39;;;;;;;8.27;2.53;;;3.80;99.90;3.60;101703.00;;;;4932161;28;93143;-67
2022/02/26 05:00:08;;;;;;;7.67;2.37;;;3.70;99.90;3.60;101701.00;;;;4932266;28;93034;-65
2022/02/26 05:02:34;;;;;;;4.20;2.07;;;3.80;99.90;3.60;101709.00;;;;4931899;28;94373;-66
2022/02/26 05:05:00;;;;;;;9.03;2.30;;;3.80;99.90;3.60;101702.00;;;;4933770;28;100861;-65
2022/02/26 05:07:25;;;;;;;6.33;2.17;;;3.90;99.90;3.60;101709.00;;;;4927233;28;122437;-67
2022/02/26 05:09:52;;;;;;;4.47;2.57;;;3.80;99.90;3.60;101720.00;;;;4930397;28;110789;-66
2022/02/26 05:12:17;;;;;;;5.93;2.17;;;3.80;99.90;3.60;101714.00;;;;4929899;28;93716;-66
2022/02/26 05:14:43;;;;;;;7.53;2.93;;;3.80;99.90;3.60;101724.00;;;;4931693;28;121776;-67
2022/02/26 05:17:09;;;;;;;4.83;2.73;;;3.80;99.90;3.60;101723.00;;;;4931475;28;121732;-66
2022/02/26 05:19:35;;;;;;;3.60;1.73;;;3.90;99.90;3.70;101728.00;;;;4931854;28;109445;-67
2022/02/26 05:22:00;;;;;;;2.93;1.27;;;3.90;99.90;3.70;101735.00;;;;4931416;28;108476;-67
2022/02/26 05:24:26;;;;;;;3.63;2.10;;;3.80;99.90;3.60;101739.00;;;;4930293;28;122726;-67
2022/02/26 05:26:52;;;;;;;5.13;1.57;;;3.90;99.90;3.70;101748.00;;;;4919034;28;123711;-66
2022/02/26 05:29:19;;;;;;;4.73;2.93;;;3.90;99.90;3.70;101745.00;;;;4927616;28;109871;-67
2022/02/26 05:31:45;;;;;;;8.27;2.23;;;4.70;99.90;3.70;101748.00;;;;4926992;28;93004;-66
2022/02/26 05:34:11;;;;;;;5.80;2.10;;;3.90;99.90;3.70;101755.00;;;;4930758;28;114107;-67
2022/02/26 05:36:37;;;;;;;6.73;2.20;;;3.80;99.90;3.70;101757.00;;;;4930533;28;92881;-65
2022/02/26 05:39:03;;;;;;;3.97;2.10;;;3.90;99.90;3.70;101765.00;;;;4930415;28;111288;-66
2022/02/26 05:41:29;;;;;;;9.47;2.30;;;3.90;99.90;3.70;101768.00;;;;4931055;28;92873;-66
2022/02/26 05:43:55;;;;;;;11.23;2.60;;;3.90;99.90;3.70;101775.00;;;;4928823;28;92989;-66
2022/02/26 05:46:20;;;;;;;10.10;2.20;;;4.20;99.90;3.70;101778.00;;;;4929779;28;122448;-66
2022/02/26 05:48:47;;;;;;;6.03;2.03;;;3.90;99.90;3.70;101777.00;;;;4930309;28;110767;-65
2022/02/26 05:51:13;;;;;;;11.53;2.70;;;3.80;99.90;3.70;101786.00;;;;4930922;28;94625;-65
2022/02/26 05:53:39;;;;;;;3.83;1.83;;;3.80;99.90;3.70;101792.00;;;;4930146;28;94969;-66
2022/02/26 05:56:05;;;;;;;6.60;1.77;;;3.80;99.90;3.70;101789.00;;;;4930822;28;94359;-66
2022/02/26 05:58:31;;;;;;;7.20;1.97;;;3.80;99.90;3.70;101799.00;;;;4930432;28;111626;-65
2022/02/26 06:00:57;;;;;;;11.23;3.30;;;3.80;99.90;3.70;101800.00;;;;4930185;28;108904;-64
2022/02/26 06:03:22;;;;;;;8.70;3.07;;;3.80;99.90;3.60;101801.00;;;;4930933;28;113925;-65
2022/02/26 06:05:48;;;;;;;15.97;3.00;;;4.70;99.90;3.60;101812.00;;;;4929759;28;121094;-66
2022/02/26 06:08:14;;;;;;;4.43;2.23;;;4.40;99.90;3.60;101809.00;;;;4929496;28;92296;-64
2022/02/26 06:10:39;;;;;;;6.87;2.67;;;3.80;99.90;3.70;101811.00;;;;4923671;28;92741;-65
2022/02/26 06:13:05;;;;;;;10.63;2.73;;;3.80;99.90;3.70;101811.00;;;;4929848;28;122829;-64
2022/02/26 06:15:31;;;;;;;3.80;2.50;;;3.90;99.90;3.70;101814.00;;;;4929963;28;104024;-65
2022/02/26 06:17:57;;;;;;;8.03;2.43;;;3.80;99.90;3.60;101823.00;;;;4929826;28;110966;-65
2022/02/26 06:20:22;;;;;;;6.83;2.67;;;3.80;99.90;3.60;101823.00;;;;4922869;28;109030;-65
2022/02/26 06:22:49;;;;;;;5.37;2.23;;;4.60;99.90;3.60;101818.00;;;;4931044;28;93909;-64
2022/02/26 06:25:16;;;;;;;10.20;2.77;;;3.90;99.90;3.70;101836.00;;;;4930408;28;93949;-65
2022/02/26 06:27:43;;;;;;;12.30;3.03;;;4.60;99.90;3.60;101825.00;;;;4925150;28;92741;-64
2022/02/26 06:30:12;;;;;;;7.57;3.30;;;3.80;99.90;3.70;101829.00;;;;4928751;28;101836;-64
2022/02/26 06:32:39;;;;;;;15.03;3.27;;;3.90;99.90;3.70;101832.00;;;;4929343;28;113483;-64
2022/02/26 06:35:07;;;;;;;3.73;2.63;;;3.90;99.90;3.70;101833.00;;;;4930781;28;94913;-63
2022/02/26 06:37:33;;;;;;;10.33;2.93;;;3.90;99.90;3.70;101837.00;;;;4929748;28;98904;-62
2022/02/26 06:39:59;;;;;;;6.97;2.97;;;4.50;99.90;3.70;101842.00;;;;4929818;28;93901;-62
2022/02/26 06:42:26;;;;;;;12.87;3.27;;;3.90;99.90;3.70;101845.00;;;;4927588;28;106332;-63
2022/02/26 06:44:52;;;;;;;3.13;1.77;;;3.90;99.90;3.70;101855.00;;;;4929404;28;121961;-63
2022/02/26 06:47:18;;;;;;;5.23;2.50;;;3.90;99.90;3.70;101865.00;;;;4928767;28;93121;-62
2022/02/26 06:49:44;;;;;;;8.07;2.40;;;3.90;99.90;3.80;101872.00;;;;4928955;28;108879;-63
2022/02/26 06:52:11;;;;;;;4.43;2.20;;;4.50;99.90;3.80;101874.00;;;;4928372;28;122197;-61
2022/02/26 06:54:37;;;;;;;4.67;2.37;;;3.90;99.90;3.80;101875.00;;;;4929931;28;111576;-62
2022/02/26 06:57:04;;;;;;;5.83;2.43;;;4.00;99.90;3.80;101878.00;;;;4925145;28;92108;-62
2022/02/26 06:59:30;;;;;;;3.47;2.37;;;4.00;99.90;3.90;101873.00;;;;4929050;28;93017;-62
2022/02/26 07:01:55;;;;;;;9.07;2.90;;;4.10;99.90;3.90;101880.00;;;;4927236;28;123049;-63
2022/02/26 07:04:21;;;;;;;12.23;2.10;;;4.10;99.90;3.90;101879.00;;;;4929453;28;102572;-61
2022/02/26 07:06:47;;;;;;;4.43;1.97;;;4.10;99.90;3.90;101879.00;;;;4927217;28;109351;-62
2022/02/26 07:09:16;;;;;;;8.67;2.70;;;4.10;99.90;3.90;101892.00;;;;4926657;28;108135;-63
2022/02/26 07:11:46;;;;;;;5.47;1.77;;;4.10;99.90;4.00;101891.00;;;;4923876;28;93922;-63
2022/02/26 07:14:13;;;;;;;6.73;2.37;;;4.80;99.90;4.00;101903.00;;;;4930026;28;93231;-63
2022/02/26 07:16:40;;;;;;;12.83;3.33;;;4.40;99.90;3.90;101895.00;;;;4923363;28;93065;-63
2022/02/26 07:19:07;;;;;;;5.93;2.60;;;4.20;99.90;3.90;101899.00;;;;4928093;28;101369;-65
2022/02/26 07:21:34;;;;;;;7.07;2.30;;;4.10;99.90;3.90;101897.00;;;;4930875;28;93288;-63
2022/02/26 07:23:59;;;;;;;5.33;2.50;;;4.10;99.90;3.90;101901.00;;;;4929044;28;92837;-64
2022/02/26 07:26:27;;;;;;;5.90;2.23;;;4.00;99.90;3.90;101905.00;;;;4922771;28;108467;-64
2022/02/26 07:28:53;;;;;;;5.27;1.80;;;4.00;99.90;3.90;101908.00;;;;4928655;28;94110;-63
2022/02/26 07:31:19;;;;;;;9.97;2.87;;;4.10;99.90;3.90;101910.00;;;;4929858;28;95820;-62
2022/02/26 07:33:46;;;;;;;3.70;2.20;;;4.10;99.90;3.90;101919.00;;;;4928641;28;121269;-63
2022/02/26 07:36:12;;;;;;;8.37;2.43;;;4.00;99.90;3.80;101913.00;;;;4936980;28;92405;-62
2022/02/26 07:38:39;;;;;;;10.53;2.87;;;4.00;99.90;3.80;101915.00;;;;4937873;28;92799;-65
2022/02/26 07:41:06;;;;;;;5.70;2.83;;;3.80;99.90;3.80;101923.00;;;;4929497;28;112334;-63
2022/02/26 07:43:36;;;;;;;2.60;1.63;;;4.00;99.90;3.80;101923.00;;;;4928921;28;93800;-65
2022/02/26 07:46:03;;;;;;;5.17;2.43;;;4.00;99.90;3.80;101938.00;;;;4927881;28;92303;-65
2022/02/26 07:48:29;;;;;;;13.80;2.67;;;4.00;99.90;3.80;101936.00;;;;4929498;28;92920;-63
2022/02/26 07:50:55;;;;;;;4.83;1.73;;;4.00;99.90;3.90;101944.00;;;;4929440;28;93790;-64
2022/02/26 07:53:21;;;;;;;8.37;2.47;;;4.10;99.90;3.90;101940.00;;;;4922597;28;94036;-62
2022/02/26 07:55:47;;;;;;;7.07;2.17;;;4.10;99.90;4.00;101945.00;;;;4928404;28;92925;-64
2022/02/26 07:58:12;;;;;;;9.37;3.07;;;4.20;99.90;4.00;101946.00;;;;4930636;28;93351;-64
2022/02/26 08:00:39;;;;;;;8.00;2.67;;;4.20;99.90;4.10;101953.00;;;;4927504;28;93613;-63
2022/02/26 08:03:05;;;;;;;6.73;2.90;;;4.20;99.90;4.20;101956.00;;;;4926858;28;122375;-65
2022/02/26 08:05:31;;;;;;;12.07;3.07;;;4.30;99.90;4.20;101973.00;;;;4927460;28;93408;-64
2022/02/26 08:07:58;;;;;;;4.90;2.57;;;4.60;99.90;4.30;101965.00;;;;4922829;28;93234;-65
2022/02/26 08:10:25;;;;;;;12.43;3.17;;;5.00;99.90;4.40;101963.00;;;;4921421;28;92453;-63
2022/02/26 08:12:56;;;;;;;7.23;2.37;;;4.50;99.90;4.50;101975.00;;;;4927898;28;93509;-65
2022/02/26 08:15:25;;;;;;;1.87;1.47;;;4.80;99.90;4.60;101975.00;;;;4928678;28;93025;-64
2022/02/26 08:17:51;;;;;;;6.77;2.37;;;5.40;99.90;4.60;101978.00;;;;4929786;28;94155;-63
2022/02/26 08:20:24;;;;;;;7.23;2.67;;;4.80;99.90;4.70;101977.00;;;;4928514;28;97459;-64
2022/02/26 08:22:52;;;;;;;9.17;2.93;;;5.50;99.90;4.70;101983.00;;;;4929996;28;92851;-64
2022/02/26 08:25:18;;;;;;;6.63;2.83;;;5.10;99.90;4.80;101993.00;;;;4929689;28;93023;-64
2022/02/26 08:27:44;;;;;;;11.80;2.60;;;5.30;99.90;4.90;101997.00;;;;4929637;28;93140;-65
2022/02/26 08:30:13;;;;;;;7.87;2.33;;;5.00;99.90;5.00;101995.00;;;;4928814;28;98669;-64
2022/02/26 08:32:40;;;;;;;7.33;1.97;;;5.10;99.90;5.00;101999.00;;;;4927057;28;93068;-64
2022/02/26 08:35:08;;;;;;;5.70;2.47;;;5.10;99.90;5.10;102003.00;;;;4929100;28;100480;-64
2022/02/26 08:37:35;;;;;;;9.97;2.93;;;5.20;99.90;5.10;102007.00;;;;4923334;28;92872;-64
2022/02/26 08:40:03;;;;;;;5.43;2.47;;;5.70;99.90;5.20;102010.00;;;;4926092;28;93412;-64
2022/02/26 08:42:29;;;;;;;3.53;2.33;;;5.30;99.90;5.20;102014.00;;;;4920374;28;101885;-64
2022/02/26 08:44:55;;;;;;;4.97;2.57;;;5.70;99.90;5.30;102009.00;;;;4929143;28;93102;-65
2022/02/26 08:47:21;;;;;;;7.47;2.53;;;5.40;99.90;5.30;102013.00;;;;4929540;28;92936;-65
2022/02/26 08:49:47;;;;;;;12.20;2.40;;;5.50;99.90;5.40;102019.00;;;;4928913;28;92975;-64
2022/02/26 08:52:14;;;;;;;8.20;2.33;;;5.50;99.90;5.50;102023.00;;;;4926992;28;93079;-64
2022/02/26 08:54:40;;;;;;;7.90;3.07;;;5.60;99.90;5.60;102023.00;;;;4922358;28;92986;-63
2022/02/26 08:57:06;;;;;;;11.87;2.70;;;5.70;99.90;5.70;102026.00;;;;4929737;28;107550;-64
2022/02/26 08:59:32;;;;;;;2.80;1.77;;;5.80;99.90;5.80;102039.00;;;;4929970;28;93185;-63
2022/02/26 09:01:59;;;;;;;11.27;2.80;;;5.80;99.90;5.90;102033.00;;;;4929050;28;93076;-64
2022/02/26 09:04:24;;;;;;;6.43;1.57;;;6.00;99.90;6.10;102034.00;;;;4930197;28;93064;-64
2022/02/26 09:06:50;;;;;;;9.03;2.87;;;6.10;99.90;6.20;102036.00;;;;4922911;28;93786;-63
2022/02/26 09:09:16;;;;;;;3.50;2.07;;;6.20;99.90;6.30;102039.00;;;;4927999;28;121061;-64
2022/02/26 09:11:42;;;;;;;10.83;2.20;;;6.40;99.90;6.30;102047.00;;;;4922745;28;115487;-62
2022/02/26 09:14:10;;;;;;;6.90;2.60;;;6.40;99.90;6.40;102051.00;;;;4932325;28;93146;-63
2022/02/26 09:16:36;;;;;;;4.10;3.40;;;6.50;99.90;6.50;102056.00;;;;4933298;28;92893;-63
2022/02/26 09:19:02;;;;;;;15.93;6.57;;;6.50;99.90;6.60;102056.00;;;;4931414;28;96213;-63
2022/02/26 09:21:28;;;;;;;10.77;6.13;;;6.60;99.90;6.70;102071.00;;;;4931670;28;92843;-63
2022/02/26 09:23:54;;;;;;;6.43;4.23;;;6.70;99.90;6.80;102068.00;;;;4931877;28;92381;-62
2022/02/26 09:26:20;;;;;;;11.23;5.47;;;6.80;99.90;6.90;102067.00;;;;4924493;28;107926;-63
2022/02/26 09:28:46;;;;;;;8.73;3.93;;;6.90;99.90;6.90;102079.00;;;;4931499;28;93023;-63
2022/02/26 09:31:13;;;;;;;4.67;1.97;;;7.00;99.90;7.00;102086.00;;;;4930698;28;94526;-64
2022/02/26 09:33:39;;;;;;;5.07;2.00;;;7.00;99.90;7.00;102087.00;;;;4932887;28;92976;-64
2022/02/26 09:36:07;;;;;;;3.80;1.67;;;7.10;99.90;7.00;102093.00;;;;4928606;28;93020;-64
2022/02/26 09:38:35;;;;;;;7.00;1.77;;;7.10;99.90;7.10;102088.00;;;;4931712;28;94445;-64
2022/02/26 09:41:03;;;;;;;6.03;2.43;;;7.10;99.90;7.10;102097.00;;;;4930517;28;93134;-65
2022/02/26 09:43:30;;;;;;;6.77;1.67;;;7.20;99.90;7.10;102095.00;;;;4930534;28;101063;-64
2022/02/26 09:45:57;;;;;;;4.53;1.57;;;7.20;99.90;7.10;102099.00;;;;4931225;28;92934;-64
2022/02/26 09:48:23;;;;;;;5.37;2.00;;;7.20;99.90;7.10;102107.00;;;;4931283;28;106896;-64
2022/02/26 09:50:49;;;;;;;13.40;3.30;;;7.10;99.90;7.10;102110.00;;;;4921091;28;93039;-65
2022/02/26 09:53:19;;;;;;;6.07;2.63;;;7.20;99.90;7.10;102105.00;;;;4932093;28;92681;-64
2022/02/26 09:55:45;;;;;;;4.87;2.30;;;7.20;99.90;7.10;102126.00;;;;4931231;28;94185;-66
2022/02/26 09:58:16;;;;;;;4.43;1.57;;;7.20;99.90;7.10;102126.00;;;;4928995;28;103257;-64
2022/02/26 10:00:43;;;;;;;6.30;2.13;;;7.20;99.90;7.10;102125.00;;;;4930922;28;92639;-64
2022/02/26 10:03:44;;;;;;;6.83;1.67;;;7.20;99.90;7.00;102127.00;;;;4929608;28;93119;-64
2022/02/26 10:06:18;;;;;;;3.40;1.90;;;7.20;99.90;7.00;102133.00;;;;4861889;28;93408;-65
2022/02/26 10:08:50;;;;;;;1.60;1.40;;;7.10;99.90;7.10;102135.00;;;;4923946;28;93740;-65
2022/02/26 10:11:35;;;;;;;6.70;2.07;;;7.20;99.90;7.10;102136.00;;;;4929436;28;93340;-64
2022/02/26 10:14:10;;;;;;;1.47;1.37;;;7.20;99.90;7.10;102135.00;;;;4931240;28;92362;-63
2022/02/26 10:16:51;;;;;;;2.87;1.37;;;7.20;99.90;7.20;102146.00;;;;4930955;28;92671;-64
2022/02/26 10:19:34;;;;;;;3.93;1.77;;;7.20;99.90;7.20;102153.00;;;;4928265;28;94057;-64
2022/02/26 10:22:04;;;;;;;3.83;2.13;;;7.30;99.90;7.20;102150.00;;;;4929400;28;113979;-64
2022/02/26 10:24:32;;;;;;;3.60;1.50;;;7.30;99.90;7.20;102157.00;;;;4929668;28;103254;-65
2022/02/26 10:27:09;;;;;;;3.20;1.57;;;7.30;99.90;7.20;102161.00;;;;4930277;28;98238;-64
2022/02/26 10:29:40;;;;;;;5.03;1.77;;;7.30;99.90;7.20;102163.00;;;;4929870;28;94148;-65
2022/02/26 10:32:08;;;;;;;2.47;1.40;;;7.30;99.90;7.20;102161.00;;;;4924706;28;121409;-64
2022/02/26 10:34:45;;;;;;;5.73;2.10;;;7.30;99.90;7.20;102163.00;;;;4931286;28;92838;-64
2022/02/26 10:37:18;;;;;;;3.83;1.70;;;7.30;99.90;7.20;102163.00;;;;4929507;28;93560;-63
2022/02/26 10:39:53;;;;;;;8.50;1.30;;;7.30;99.90;7.10;102171.00;;;;4922616;28;114413;-64
2022/02/26 10:42:20;;;;;;;2.83;1.60;;;7.30;99.90;7.00;102172.00;;;;4929059;28;93115;-67
2022/02/26 10:44:59;;;;;;;4.63;1.43;;;7.10;99.90;6.80;102172.00;;;;4928947;28;93092;-69
2022/02/26 10:47:29;;;;;;;3.63;1.77;;;7.00;99.90;6.60;102173.00;;;;4928450;28;94066;-68
2022/02/26 10:49:55;;;;;;;11.03;2.13;;;6.80;99.90;6.50;102174.00;;;;4929744;28;93335;-68
2022/02/26 10:52:21;;;;;;;6.93;2.97;;;6.60;99.90;6.30;102169.00;;;;4928628;28;94118;-69
2022/02/26 10:54:52;;;;;;;11.03;2.27;;;7.10;99.90;6.20;102172.00;;;;4923409;28;109827;-67
2022/02/26 10:57:18;;;;;;;5.37;1.73;;;6.40;99.90;6.10;102174.00;;;;4928387;28;92772;-66